Terminal Aerodrome Forecast
Issued by NWS

Current Version | Previous Version | Graphics & Text | Print | Product List | Glossary On
Versions: 1 2 3 4 5 6 7 8 9 10 11 12 13 14 15 16 17 18 19
000
FTUS41 KILN 220100 AAA
TAFLUK
TAF AMD
KLUK 220152Z 2202/2224 24005KT P6SM SCT050 OVC080
     FM220600 26006KT P6SM -SHRA SCT012 OVC050
     FM221100 31009KT P6SM OVC020
     FM221400 33013G23KT P6SM SCT035
     FM221800 33015G25KT P6SM FEW035
     FM222300 32007KT P6SM SKC=

USA.gov is the U.S. government's official web portal to all federal, state and local government web resources and services.